createdAt,value
2019-04-14T00:01:30.508Z,8.97
2019-04-14T00:04:13.897Z,8.53
2019-04-14T00:06:44.033Z,7.73
2019-04-14T00:09:16.222Z,10.53
2019-04-14T00:11:45.945Z,8.97
2019-04-14T00:14:14.593Z,9.20
2019-04-14T00:16:43.071Z,8.97
2019-04-14T00:19:11.528Z,9.20
2019-04-14T00:21:41.074Z,9.17
2019-04-14T00:24:09.644Z,9.47
2019-04-14T00:26:38.124Z,8.90
2019-04-14T00:29:06.849Z,10.00
2019-04-14T00:31:35.341Z,9.37
2019-04-14T00:34:07.301Z,8.87
2019-04-14T00:37:01.320Z,8.17
2019-04-14T00:39:35.734Z,9.10
2019-04-14T00:42:21.809Z,8.37
2019-04-14T00:44:53.913Z,7.70
2019-04-14T00:47:26.692Z,8.40
2019-04-14T00:49:55.660Z,9.13
2019-04-14T00:52:25.358Z,7.60
2019-04-14T00:54:54.317Z,7.97
2019-04-14T00:57:22.808Z,7.13
2019-04-14T00:59:51.606Z,8.00
2019-04-14T01:02:21.103Z,7.13
2019-04-14T01:04:49.692Z,9.17
2019-04-14T01:07:19.531Z,6.83
2019-04-14T01:09:48.889Z,8.73
2019-04-14T01:12:17.429Z,7.07
2019-04-14T01:14:45.875Z,8.13
2019-04-14T01:17:15.447Z,7.87
2019-04-14T01:19:43.962Z,7.20
2019-04-14T01:22:12.415Z,8.10
2019-04-14T01:24:40.884Z,7.50
2019-04-14T01:27:10.279Z,8.10
2019-04-14T01:29:38.685Z,8.40
2019-04-14T01:32:08.712Z,6.30
2019-04-14T01:34:37.628Z,7.20
2019-04-14T01:37:07.184Z,6.87
2019-04-14T01:39:35.716Z,7.60
2019-04-14T01:42:04.954Z,8.97
2019-04-14T01:44:33.557Z,8.13
2019-04-14T01:47:03.125Z,7.63
2019-04-14T01:49:31.566Z,6.70
2019-04-14T01:52:23.119Z,7.33
2019-04-14T01:55:13.419Z,6.93
2019-04-14T01:57:54.773Z,7.87
2019-04-14T02:00:42.317Z,7.80
2019-04-14T02:03:10.924Z,8.20
2019-04-14T02:05:40.612Z,6.50
2019-04-14T02:08:09.159Z,7.97
2019-04-14T02:10:37.601Z,6.53
2019-04-14T02:13:07.149Z,7.73
2019-04-14T02:15:35.653Z,8.00
2019-04-14T02:18:05.553Z,7.23
2019-04-14T02:20:34.175Z,7.13
2019-04-14T02:23:03.849Z,7.53
2019-04-14T02:25:33.898Z,6.10
2019-04-14T02:28:02.493Z,7.93
2019-04-14T02:30:38.886Z,7.93
2019-04-14T02:33:34.815Z,8.43
2019-04-14T02:43:30.365Z,7.00
2019-04-14T02:45:57.921Z,6.90
2019-04-14T02:51:06.118Z,5.20
2019-04-14T02:53:39.495Z,7.80
2019-04-14T02:58:38.482Z,6.97
2019-04-14T03:03:33.571Z,6.30
2019-04-14T03:06:05.399Z,7.70
2019-04-14T03:08:34.388Z,7.20
2019-04-14T03:11:01.648Z,7.63
2019-04-14T03:13:35.307Z,8.30
2019-04-14T03:16:07.947Z,7.97
2019-04-14T03:27:06.178Z,6.83
2019-04-14T03:29:49.839Z,8.33
2019-04-14T03:34:42.081Z,8.00
2019-04-14T03:37:30.905Z,7.33
2019-04-14T03:39:41.472Z,7.63
2019-04-14T03:42:13.121Z,7.97
2019-04-14T03:44:42.044Z,6.67
2019-04-14T03:47:06.908Z,7.63
2019-04-14T03:49:40.752Z,7.97
2019-04-14T03:52:08.758Z,7.97
2019-04-14T03:54:33.258Z,7.80
2019-04-14T03:57:01.771Z,7.80
2019-04-14T03:59:30.373Z,6.63
2019-04-14T04:01:58.810Z,8.00
2019-04-14T04:04:27.527Z,7.73
2019-04-14T04:06:57.360Z,7.97
2019-04-14T04:09:32.171Z,8.47
2019-04-14T04:12:00.664Z,7.83
2019-04-14T04:14:29.224Z,8.03
2019-04-14T04:17:17.101Z,7.90
2019-04-14T04:19:59.925Z,7.80
2019-04-14T04:22:48.420Z,8.57
2019-04-14T04:25:31.154Z,8.40
2019-04-14T04:28:25.618Z,8.40
2019-04-14T04:31:16.323Z,7.90
2019-04-14T04:34:09.894Z,8.27
2019-04-14T04:36:46.365Z,8.67
2019-04-14T04:39:19.337Z,8.23
2019-04-14T04:41:49.331Z,7.80
2019-04-14T04:44:18.416Z,9.83
2019-04-14T04:46:46.883Z,8.07
2019-04-14T04:49:21.151Z,6.63
2019-04-14T04:51:46.548Z,8.60
2019-04-14T04:54:15.115Z,9.60
2019-04-14T04:56:44.786Z,7.67
2019-04-14T04:59:13.441Z,9.17
2019-04-14T05:01:42.913Z,7.67
2019-04-14T05:04:11.460Z,9.60
2019-04-14T05:07:08.350Z,8.87
2019-04-14T05:09:55.614Z,7.40
2019-04-14T05:12:37.494Z,8.97
2019-04-14T05:15:42.309Z,7.50
2019-04-14T05:18:15.792Z,7.47
2019-04-14T05:20:44.260Z,6.33
2019-04-14T05:23:12.718Z,8.33
2019-04-14T05:25:41.196Z,6.70
2019-04-14T05:28:09.671Z,7.77
2019-04-14T05:30:39.236Z,7.60
2019-04-14T05:33:07.802Z,7.73
2019-04-14T05:35:36.333Z,6.33
2019-04-14T05:38:04.746Z,5.93
2019-04-14T05:40:34.308Z,7.83
2019-04-14T05:43:02.993Z,6.10
2019-04-14T05:45:32.657Z,6.53
2019-04-14T05:48:01.713Z,8.30
2019-04-14T05:50:31.263Z,5.83
2019-04-14T05:53:00.054Z,7.53
2019-04-14T05:55:28.553Z,7.00
2019-04-14T05:57:57.266Z,6.27
2019-04-14T06:00:25.939Z,6.60
2019-04-14T06:02:55.205Z,6.57
2019-04-14T06:05:23.706Z,6.60
2019-04-14T06:07:52.321Z,7.90
2019-04-14T06:10:21.344Z,7.73
2019-04-14T06:12:51.049Z,6.07
2019-04-14T06:15:19.498Z,7.13
2019-04-14T06:17:47.958Z,6.60
2019-04-14T06:20:16.419Z,7.47
2019-04-14T06:22:44.869Z,5.40
2019-04-14T06:25:13.317Z,5.83
2019-04-14T06:27:41.787Z,6.30
2019-04-14T06:30:30.625Z,6.10
2019-04-14T06:33:01.457Z,5.57
2019-04-14T06:35:46.681Z,6.20
2019-04-14T06:38:21.605Z,6.37
2019-04-14T06:40:55.084Z,6.50
2019-04-14T06:43:23.559Z,5.93
2019-04-14T06:45:52.025Z,7.27
2019-04-14T06:48:20.523Z,7.30
2019-04-14T06:50:48.985Z,7.00
2019-04-14T06:53:17.454Z,5.73
2019-04-14T06:55:45.942Z,7.37
2019-04-14T06:58:14.437Z,5.50
2019-04-14T07:00:42.872Z,5.50
2019-04-14T07:03:11.545Z,6.77
2019-04-14T07:05:40.365Z,5.43
2019-04-14T07:08:08.821Z,5.43
2019-04-14T07:10:37.313Z,7.10
2019-04-14T07:13:05.801Z,6.27
2019-04-14T07:15:34.271Z,5.93
2019-04-14T07:18:02.834Z,6.37
2019-04-14T07:20:31.323Z,5.83
2019-04-14T07:22:59.797Z,6.97
2019-04-14T07:25:28.279Z,5.27
2019-04-14T07:27:57.452Z,6.87
2019-04-14T07:30:43.751Z,5.60
2019-04-14T07:33:34.255Z,6.07
2019-04-14T07:36:22.566Z,5.27
2019-04-14T07:39:09.724Z,5.37
2019-04-14T07:41:45.271Z,5.70
2019-04-14T07:44:20.920Z,7.03
2019-04-14T07:47:03.835Z,5.90
2019-04-14T07:49:43.187Z,7.07
2019-04-14T07:52:29.432Z,6.30
2019-04-14T07:55:05.737Z,6.17
2019-04-14T07:57:52.016Z,6.53
2019-04-14T08:00:42.761Z,6.27
2019-04-14T08:03:15.930Z,5.13
2019-04-14T08:05:44.440Z,5.77
2019-04-14T08:08:12.909Z,6.43
2019-04-14T08:10:41.405Z,5.13
2019-04-14T08:13:09.883Z,5.87
2019-04-14T08:15:38.370Z,6.07
2019-04-14T08:18:06.866Z,6.20
2019-04-14T08:20:35.713Z,6.40
2019-04-14T08:23:04.268Z,5.90
2019-04-14T08:25:32.698Z,6.20
2019-04-14T08:28:01.270Z,5.07
2019-04-14T08:30:29.727Z,5.10
2019-04-14T08:32:58.284Z,5.53
2019-04-14T08:35:26.764Z,5.57
2019-04-14T08:37:55.236Z,5.67
2019-04-14T08:40:23.691Z,5.67
2019-04-14T08:43:10.818Z,6.77
2019-04-14T08:45:56.018Z,6.27
2019-04-14T08:48:43.509Z,5.83
2019-04-14T08:51:16.646Z,5.17
2019-04-14T08:53:52.724Z,6.17
2019-04-14T08:56:32.379Z,5.83
2019-04-14T08:59:18.048Z,5.87
2019-04-14T09:02:08.233Z,6.40
2019-04-14T09:04:45.271Z,6.70
2019-04-14T09:07:21.484Z,5.67
2019-04-14T09:09:54.570Z,6.60
2019-04-14T09:12:25.348Z,5.57
2019-04-14T09:14:57.378Z,6.33
2019-04-14T09:17:24.172Z,6.10
2019-04-14T09:19:52.659Z,6.20
2019-04-14T09:22:21.143Z,5.97
2019-04-14T09:24:49.657Z,4.93
2019-04-14T09:27:18.498Z,5.90
2019-04-14T09:29:47.026Z,7.57
2019-04-14T09:32:15.706Z,6.07
2019-04-14T09:34:44.170Z,6.43
2019-04-14T09:37:12.663Z,7.53
2019-04-14T09:39:41.132Z,6.47
2019-04-14T09:42:09.637Z,5.33
2019-04-14T09:44:38.116Z,5.57
2019-04-14T09:47:06.624Z,5.73
2019-04-14T09:49:35.455Z,5.47
2019-04-14T09:52:03.907Z,5.40
2019-04-14T09:54:32.364Z,4.80
2019-04-14T09:57:00.796Z,5.50
2019-04-14T09:59:29.241Z,5.20
2019-04-14T10:01:57.767Z,5.90
2019-04-14T10:04:26.208Z,5.07
2019-04-14T10:06:54.661Z,6.40
2019-04-14T10:09:23.123Z,5.37
2019-04-14T10:11:56.047Z,5.47
2019-04-14T10:14:22.067Z,6.40
2019-04-14T10:16:50.524Z,5.90
2019-04-14T10:19:18.992Z,7.30
2019-04-14T10:21:47.532Z,7.53
2019-04-14T10:24:16.053Z,8.53
2019-04-14T10:26:44.529Z,7.17
2019-04-14T10:29:13.023Z,9.77
2019-04-14T10:31:41.500Z,8.57
2019-04-14T10:34:10.054Z,8.37
2019-04-14T10:36:38.503Z,9.97
2019-04-14T10:39:07.882Z,8.33
2019-04-14T10:41:36.349Z,9.57
2019-04-14T10:44:04.889Z,9.33
2019-04-14T10:46:33.354Z,8.70
2019-04-14T10:49:01.881Z,9.40
2019-04-14T10:51:33.876Z,7.70
2019-04-14T10:54:00.599Z,8.63
2019-04-14T10:56:29.059Z,9.27
2019-04-14T10:58:57.516Z,8.40
2019-04-14T11:01:25.990Z,8.60
2019-04-14T11:03:54.470Z,10.00
2019-04-14T11:06:30.033Z,9.40
2019-04-14T11:08:58.514Z,10.43
2019-04-14T11:11:26.952Z,8.87
2019-04-14T11:13:55.424Z,8.13
2019-04-14T11:16:24.237Z,7.53
2019-04-14T11:18:52.702Z,8.33
2019-04-14T11:21:21.134Z,9.30
2019-04-14T11:23:49.612Z,9.10
2019-04-14T11:26:18.056Z,8.80
2019-04-14T11:28:46.513Z,7.63
2019-04-14T11:31:17.145Z,9.33
2019-04-14T11:34:01.353Z,7.70
2019-04-14T11:36:48.054Z,6.63
2019-04-14T11:39:17.291Z,7.43
2019-04-14T11:41:46.102Z,6.90
2019-04-14T11:44:14.607Z,8.13
2019-04-14T11:46:43.077Z,7.80
2019-04-14T11:49:11.616Z,7.13
2019-04-14T11:51:40.081Z,7.43
2019-04-14T11:54:08.547Z,8.17
2019-04-14T11:56:37.031Z,6.67
2019-04-14T11:59:05.505Z,7.40
2019-04-14T12:02:08.249Z,8.40
2019-04-14T12:04:51.961Z,7.40
2019-04-14T12:07:48.357Z,6.90
2019-04-14T12:10:19.435Z,7.93
2019-04-14T12:12:47.874Z,6.67
2019-04-14T12:15:16.821Z,7.53
2019-04-14T12:17:45.402Z,7.33
2019-04-14T12:20:13.860Z,6.47
2019-04-14T12:22:42.332Z,6.43
2019-04-14T12:25:10.797Z,6.47
2019-04-14T12:27:39.743Z,6.90
2019-04-14T12:30:11.137Z,6.10
2019-04-14T12:32:39.859Z,7.10
2019-04-14T12:35:08.454Z,8.40
2019-04-14T12:37:36.953Z,7.83
2019-04-14T12:40:05.487Z,7.63
2019-04-14T12:42:49.517Z,8.83
2019-04-14T12:45:35.729Z,8.20
2019-04-14T12:48:22.283Z,7.10
2019-04-14T12:50:57.582Z,7.17
2019-04-14T12:53:26.062Z,7.07
2019-04-14T12:55:54.638Z,7.20
2019-04-14T12:58:31.600Z,7.63
2019-04-14T13:01:07.385Z,7.97
2019-04-14T13:03:37.733Z,6.33
2019-04-14T13:06:06.155Z,6.00
2019-04-14T13:08:34.610Z,8.07
2019-04-14T13:11:03.880Z,8.33
2019-04-14T13:13:32.350Z,7.27
2019-04-14T13:16:01.259Z,8.07
2019-04-14T13:18:30.652Z,8.13
2019-04-14T13:20:59.394Z,6.60
2019-04-14T13:23:27.849Z,7.10
2019-04-14T13:25:56.493Z,9.40
2019-04-14T13:28:24.972Z,7.50
2019-04-14T13:30:53.890Z,7.80
2019-04-14T13:33:22.397Z,7.60
2019-04-14T13:35:50.932Z,8.43
2019-04-14T13:38:19.485Z,9.03
2019-04-14T13:40:47.930Z,7.13
2019-04-14T13:43:16.410Z,8.47
2019-04-14T13:45:44.853Z,7.40
2019-04-14T13:48:13.424Z,7.13
2019-04-14T13:50:42.035Z,8.03
2019-04-14T13:53:10.499Z,8.10
2019-04-14T13:55:38.969Z,6.90
2019-04-14T13:58:07.442Z,9.23
2019-04-14T14:00:36.216Z,8.27
2019-04-14T14:03:04.690Z,6.80
2019-04-14T14:05:33.137Z,7.63
2019-04-14T14:08:01.689Z,7.87
2019-04-14T14:10:31.611Z,9.57
2019-04-14T14:13:18.096Z,8.67
2019-04-14T14:16:01.867Z,7.23
2019-04-14T14:18:38.059Z,8.70
2019-04-14T14:21:21.463Z,9.67
2019-04-14T14:24:12.171Z,7.53
2019-04-14T14:26:41.429Z,7.97
2019-04-14T14:29:09.931Z,9.40
2019-04-14T14:31:38.402Z,9.20
2019-04-14T14:34:06.869Z,8.53
2019-04-14T14:36:35.606Z,8.57
2019-04-14T14:39:05.641Z,8.83
2019-04-14T14:41:34.107Z,9.83
2019-04-14T14:44:02.581Z,7.20
2019-04-14T14:46:41.455Z,8.63
2019-04-14T14:49:16.950Z,7.93
2019-04-14T14:51:53.379Z,7.27
2019-04-14T14:54:21.878Z,8.83
2019-04-14T14:56:50.330Z,8.93
2019-04-14T14:59:18.781Z,9.83
2019-04-14T15:01:47.267Z,8.20
2019-04-14T15:04:18.890Z,9.73
2019-04-14T15:06:46.270Z,9.37
2019-04-14T15:09:14.794Z,9.43
2019-04-14T15:11:43.369Z,8.70
2019-04-14T15:14:11.856Z,9.17
2019-04-14T15:16:40.324Z,8.77
2019-04-14T15:19:08.832Z,8.77
2019-04-14T15:21:37.313Z,6.47
2019-04-14T15:24:05.786Z,6.73
2019-04-14T15:26:34.349Z,7.53
2019-04-14T15:29:02.797Z,5.97
2019-04-14T15:31:31.272Z,5.37
2019-04-14T15:33:59.804Z,6.73
2019-04-14T15:36:28.270Z,6.70
2019-04-14T15:38:58.444Z,6.33
2019-04-14T15:41:26.967Z,6.00
2019-04-14T15:43:55.698Z,5.90
2019-04-14T15:46:24.176Z,7.10
2019-04-14T15:48:52.738Z,5.60
2019-04-14T15:51:21.494Z,7.50
2019-04-14T15:53:49.998Z,6.07
2019-04-14T15:56:30.741Z,5.93
2019-04-14T15:59:06.724Z,6.03
2019-04-14T16:01:42.990Z,5.97
2019-04-14T16:04:18.698Z,7.80
2019-04-14T16:06:53.816Z,5.50
2019-04-14T16:09:27.438Z,5.90
2019-04-14T16:12:13.871Z,5.40
2019-04-14T16:15:07.514Z,5.67
2019-04-14T16:17:47.251Z,5.80
2019-04-14T16:20:18.894Z,4.80
2019-04-14T16:22:47.386Z,5.57
2019-04-14T16:25:16.112Z,5.20
2019-04-14T16:28:03.139Z,5.10
2019-04-14T16:30:50.745Z,5.20
2019-04-14T16:33:30.758Z,5.67
2019-04-14T16:35:59.545Z,5.00
2019-04-14T16:38:28.030Z,5.60
2019-04-14T16:40:56.593Z,6.13
2019-04-14T16:43:26.383Z,5.50
2019-04-14T16:45:55.082Z,6.07
2019-04-14T16:48:23.553Z,5.80
2019-04-14T16:50:52.062Z,5.03
2019-04-14T16:53:27.285Z,5.30
2019-04-14T16:56:11.862Z,5.77
2019-04-14T16:58:46.987Z,5.60
2019-04-14T17:01:24.499Z,5.17
2019-04-14T17:03:52.957Z,5.37
2019-04-14T17:06:21.601Z,5.33
2019-04-14T17:08:50.045Z,5.27
2019-04-14T17:11:18.537Z,5.50
2019-04-14T17:13:54.436Z,5.50
2019-04-14T17:16:39.471Z,5.80
2019-04-14T17:19:15.601Z,4.90
2019-04-14T17:21:54.532Z,4.70
2019-04-14T17:24:45.022Z,5.77
2019-04-14T17:27:47.998Z,5.97
2019-04-14T17:30:28.072Z,5.33
2019-04-14T17:33:14.299Z,6.33
2019-04-14T17:35:47.763Z,4.73
2019-04-14T17:38:38.148Z,6.40
2019-04-14T17:41:25.717Z,5.37
2019-04-14T17:44:10.606Z,5.13
2019-04-14T17:46:48.451Z,6.13
2019-04-14T17:49:28.261Z,5.33
2019-04-14T17:52:14.430Z,4.80
2019-04-14T17:55:05.027Z,5.50
2019-04-14T17:57:50.750Z,5.07
2019-04-14T18:00:31.179Z,5.60
2019-04-14T18:03:03.729Z,5.37
2019-04-14T18:05:36.684Z,6.27
2019-04-14T18:08:12.137Z,5.23
2019-04-14T18:10:55.089Z,6.00
2019-04-14T18:13:41.552Z,4.87
2019-04-14T18:16:20.684Z,6.53
2019-04-14T18:19:12.012Z,4.17
2019-04-14T18:21:40.506Z,5.17
2019-04-14T18:24:08.989Z,5.80
2019-04-14T18:26:37.457Z,5.23
2019-04-14T18:29:23.731Z,5.50
2019-04-14T18:32:14.382Z,5.40
2019-04-14T18:34:50.728Z,5.53
2019-04-14T18:37:44.167Z,5.37
2019-04-14T18:40:16.562Z,5.77
2019-04-14T18:43:00.192Z,5.07
2019-04-14T18:45:35.527Z,6.10
2019-04-14T18:48:23.073Z,5.47
2019-04-14T18:51:09.396Z,4.90
2019-04-14T18:54:03.156Z,5.37
2019-04-14T18:56:54.018Z,4.60
2019-04-14T18:59:46.072Z,6.40
2019-04-14T19:02:16.185Z,5.50
2019-04-14T19:04:44.676Z,5.77
2019-04-14T19:07:13.396Z,5.97
2019-04-14T19:09:41.932Z,5.90
2019-04-14T19:12:28.316Z,5.37
2019-04-14T19:15:06.826Z,6.77
2019-04-14T19:17:41.577Z,4.70
2019-04-14T19:20:10.780Z,4.70
2019-04-14T19:22:39.349Z,5.70
2019-04-14T19:25:08.788Z,5.13
2019-04-14T19:27:37.347Z,5.17
2019-04-14T19:30:05.952Z,5.97
2019-04-14T19:32:34.414Z,4.57
2019-04-14T19:35:02.890Z,5.30
2019-04-14T19:37:31.396Z,6.27
2019-04-14T19:39:59.884Z,5.93
2019-04-14T19:42:28.417Z,5.43
2019-04-14T19:44:57.182Z,5.73
2019-04-14T19:47:25.668Z,5.40
2019-04-14T19:49:54.447Z,4.93
2019-04-14T19:52:22.950Z,5.63
2019-04-14T19:54:51.380Z,5.10
2019-04-14T19:57:19.928Z,5.57
2019-04-14T19:59:48.923Z,5.03
2019-04-14T20:02:17.408Z,5.37
2019-04-14T20:04:46.538Z,4.70
2019-04-14T20:07:15.310Z,5.40
2019-04-14T20:09:43.799Z,4.43
2019-04-14T20:12:13.778Z,5.23
2019-04-14T20:14:42.535Z,4.23
2019-04-14T20:17:27.801Z,4.67
2019-04-14T20:20:14.009Z,4.77
2019-04-14T20:23:01.944Z,5.63
2019-04-14T20:25:55.490Z,4.83
2019-04-14T20:28:46.365Z,4.80
2019-04-14T20:31:42.881Z,4.43
2019-04-14T20:34:11.439Z,4.13
2019-04-14T20:36:40.231Z,5.30
2019-04-14T20:39:13.129Z,4.97
2019-04-14T20:41:41.600Z,4.23
2019-04-14T20:44:10.095Z,4.37
2019-04-14T20:46:38.828Z,4.77
2019-04-14T20:49:07.377Z,4.40
2019-04-14T20:51:36.116Z,4.40
2019-04-14T20:54:04.588Z,3.47
2019-04-14T20:56:33.063Z,4.20
2019-04-14T20:59:01.530Z,3.97
2019-04-14T21:01:32.200Z,3.40
2019-04-14T21:04:04.536Z,3.50
2019-04-14T21:06:42.965Z,3.30
2019-04-14T21:09:18.168Z,3.00
2019-04-14T21:12:05.988Z,4.00
2019-04-14T21:14:44.600Z,3.57
2019-04-14T21:17:27.045Z,3.47
2019-04-14T21:20:13.232Z,3.00
2019-04-14T21:22:47.142Z,2.57
2019-04-14T21:25:34.372Z,2.57
2019-04-14T21:28:09.388Z,2.90
2019-04-14T21:30:54.797Z,2.70
2019-04-14T21:33:45.413Z,3.37
2019-04-14T21:36:18.254Z,3.07
2019-04-14T21:39:04.944Z,3.20
2019-04-14T21:41:33.453Z,4.20
2019-04-14T21:44:01.931Z,3.30
2019-04-14T21:46:30.390Z,3.40
2019-04-14T21:48:58.899Z,3.73
2019-04-14T21:51:46.557Z,2.93
2019-04-14T21:54:14.965Z,2.70
2019-04-14T21:56:44.103Z,3.47
2019-04-14T21:59:17.850Z,3.17
2019-04-14T22:02:04.030Z,3.20
2019-04-14T22:04:50.460Z,2.80
2019-04-14T22:07:41.048Z,2.87
2019-04-14T22:10:25.766Z,3.20
2019-04-14T22:12:54.240Z,3.40
2019-04-14T22:15:22.692Z,3.10
2019-04-14T22:17:51.214Z,2.87
2019-04-14T22:20:19.707Z,2.80
2019-04-14T22:22:48.632Z,2.93
2019-04-14T22:25:17.093Z,3.40
2019-04-14T22:27:45.664Z,3.83
2019-04-14T22:30:14.135Z,3.00
2019-04-14T22:32:42.595Z,2.67
2019-04-14T22:35:11.088Z,3.63
2019-04-14T22:37:39.560Z,3.93
2019-04-14T22:40:08.007Z,3.37
2019-04-14T22:42:36.483Z,4.10
2019-04-14T22:45:05.594Z,3.20
2019-04-14T22:47:34.088Z,4.07
2019-04-14T22:50:02.582Z,3.90
2019-04-14T22:52:31.287Z,3.80
2019-04-14T22:54:59.876Z,3.13
2019-04-14T22:57:28.307Z,3.33
2019-04-14T22:59:57.054Z,2.70
2019-04-14T23:02:37.999Z,3.73
2019-04-14T23:05:19.107Z,3.43
2019-04-14T23:08:09.260Z,3.50
2019-04-14T23:11:08.908Z,3.20
2019-04-14T23:13:49.108Z,3.37
2019-04-14T23:16:28.136Z,2.53
2019-04-14T23:19:02.773Z,2.73
2019-04-14T23:21:52.384Z,3.00
2019-04-14T23:24:23.493Z,3.17
2019-04-14T23:26:53.313Z,3.23
2019-04-14T23:29:21.993Z,3.20
2019-04-14T23:31:50.428Z,3.43
2019-04-14T23:34:18.888Z,3.07
2019-04-14T23:36:47.375Z,3.13
2019-04-14T23:39:15.908Z,3.50
2019-04-14T23:41:44.357Z,3.50
2019-04-14T23:44:12.913Z,3.13
2019-04-14T23:46:41.386Z,3.10
2019-04-14T23:49:09.835Z,3.20
2019-04-14T23:51:38.324Z,3.57
2019-04-14T23:54:06.790Z,3.63
2019-04-14T23:56:35.537Z,2.90
2019-04-14T23:59:04.007Z,2.80
